AirNav  
 
 258 users online  

1L3 Searchlight Airport
Searchlight, Nevada, USA


FAA INFORMATION EFFECTIVE 09 NOVEMBER 2017

Location

FAA Identifier: 1L3
Lat/Long: 35-26-40.4000N / 114-54-33.7000W
35-26.673333N / 114-54.561667W
35.4445556 / -114.9093611
(estimated)
Elevation: 3413 ft. / 1040.3 m (surveyed)
Variation: 14E (1985)
From city: 2 miles S of SEARCHLIGHT, NV
Time zone: UTC -8 (UTC -7 during Daylight Saving Time)
Zip code: 89046

Airport Operations

Airport use: Open to the public
Activation date: 03/1953
Control tower: no
ARTCC: LOS ANGELES CENTER
FSS: RENO FLIGHT SERVICE STATION
NOTAMs facility: RNO (NOTAM-D service available)
Attendance: UNATNDD
Wind indicator: no
Segmented circle: no

Airport Communications

CTAF: 122.9

Nearby radio navigation aids

VOR radial/distance  VOR name  Freq  Var
GFSr020/22.9GOFFS VORTAC114.4015E
BLDr169/33.1BOULDER CITY VORTAC116.7015E

Airport Services

Parking: tiedowns
Airframe service: NONE
Powerplant service: NONE
Bottled oxygen: NONE
Bulk oxygen: NONE

Runway Information

Runway 16/34

Dimensions: 5040 x 70 ft. / 1536 x 21 m
Surface: asphalt/L
RWY OVERGROWN WITH 4-5 FT BRUSH ON RWY AND THROUGH CRACKS.
Runway edge markings: RWY 16/34 MARKINGS FADED.
Gradient: N
RUNWAY 16  RUNWAY 34
Latitude: 35-27.088338N35-26.259758N
Longitude: 114-54.600907W114-54.523957W
Elevation: 3413.0 ft.3300.0 ft.
Gradient: 2.4%2.2% UP
Traffic pattern: leftleft
Runway heading: 162 magnetic, 176 true342 magnetic, 356 true
Markings: basic, in poor conditionbasic, in poor condition
Runway end identifier lights: nono
Obstructions: 5 ft. fence, 275 ft. from runway, 15:1 slope to clear
+5 FT FENCE 83 FT LEFT AND PARALLEL TO CNTRLN.
5 ft. brush, 200 ft. from runway
4-5 FT BRUSH ON RWY AND +5 FT FENCE 83 FT R & PARALLEL TO CNTRLN.

Airport Ownership and Management from official FAA records

Ownership: Publicly-owned
Owner: US BUREAU OF LAND MANAGEMENT
LOUIS RODREGUEZ, 4701 N TORREY PINES DRIVE
LAS VEGAS, NV 89130
Phone 702-515-5069
Manager: CLOUDY SKYS, LLC
DAVID J. WINTERTON AND ASSOCIATES, 1140 N TOWN CENTER DRIVE, SUITE 120
LAS VEGAS 89144
Phone (253) 854-0090
PVT SECTION OF ARPT MANAGED BY PACI (HTTP://PRAXISAEROSPACE.COM/). CTC ARPT MGMT, PHONE 702-586-1160 OR EMAIL 1L3@PRAXISAEROSPACE.COM FOR PMSN PRIOR TO USE OR TO OBTAIN ARPT INFO.

Additional Remarks

LGTD 3481 FT MTN SW.
UNLGTD 165 FT PLINE LCTD APRXLY 3.2 MILES SOUTH OF RWY BLO THLD.
GROUND RISES AT CONSTANT RATE NORTH OF ARPT FOR APPROX 2 MILES.
RWY UNSUITABLE FOR ACFT.
10 FOOT BRUSH ALONG RUNWAY EDGES OVERHANGING RUNWAY
EXTENSIVE RUNWAY CRACKING
LOOSE STONES AND DEBRIS ON RUNWAY
AIRFIELD CONDITION NOT MONITORED
UAS / UAV / EXPERIMENTAL ACFT TRAFFIC USING ARPT AND OPRG IN ARPT TRAFFIC AREA BY NOTAM.

Instrument Procedures

There are no published instrument procedures at 1L3.

Some nearby airports with instrument procedures:

KIFP - Laughlin/Bullhead International Airport (24 nm SE)
KBVU - Boulder City Municipal Airport (30 nm N)
KHND - Henderson Executive Airport (34 nm N)
KLAS - Mc Carran International Airport (40 nm N)
KEED - Needles Airport (43 nm S)
 
Loc | Ops | Rwys | IFR | FBO | Links
Com | Nav | Svcs | Stats | Notes


 
Area around 1L3 (Searchlight Airport)
 
Road maps at: MapQuest Bing Google
 
Aerial photo
WARNING: Photo may not be current or correct
Aerial photo of 1L3 (Searchlight Airport)
Do you have a better or more recent aerial photo of Searchlight Airport that you would like to share? If so, please send us your photo.

 
Sectional chart

 
Airport distance calculator
Flying to Searchlight Airport? Find the distance to fly.

From to 1L3

Sunrise and sunset
Times for 22-Nov-2017
 Local
(UTC-8)
 Zulu
(UTC)
Morning civil twilight05:5613:56
Sunrise06:2314:23
Sunset16:2900:29
Evening civil twilight16:5600:56

Current date and time
Zulu (UTC)  22-Nov-2017 10:07:43
Local (UTC-8)  22-Nov-2017 02:07:43
 
METAR
KBVU 
30nm N 
220955Z AUTO 33004KT 10SM 12/M06 A3025 RMK AO2
KHND 
34nm N 
220956Z AUTO 15005KT 10SM CLR 11/M03 A3027 RMK AO2 SLP241 T01111028 $
KIFP 
35nm SE 
220955Z AUTO 02025KT 10SM CLR 22/M09 A3011 RMK AO2
KLAS 
40nm N 
220956Z 20004KT 10SM BKN250 14/M01 A3024 RMK AO2 SLP227 T01391011
KEED 
43nm S 
212256Z AUTO 01018KT 10SM CLR 27/M11 A3009 RMK AO2 SLP167 T02721106
KLSV 
47nm N 
220958Z AUTO 05003KT 10SM CLR 10/M09 A3024 RMK AO2 SLP233 T01031089 $
KVGT 
47nm N 
220953Z AUTO 00000KT 10SM CLR 12/M01 A3024 RMK AO2 SLP249 T01221006
KIGM 
49nm E 
220951Z AUTO 10004KT 10SM CLR 09/M06 A3027 RMK AO2 SLP203 T00941056
TAF
KHND 
34nm N 
220520Z 2206/2306 18006KT P6SM SCT200 BKN250 FM221700 VRB04KT P6SM SKC FM230300 18006KT P6SM SKC
KIFP 
35nm SE 
220520Z 2206/2306 02018KT P6SM BKN250 FM221600 36018G22KT P6SM SKC FM222300 02011KT P6SM SKC
KLAS 
40nm N 
220520Z 2206/2312 25005KT P6SM SCT200 BKN250 FM221600 VRB04KT P6SM SKC FM230400 22005KT P6SM SCT250
NOTAMs
Click for the latest NOTAMs
NOTAMs are issued by the DoD/FAA and will open in a separate window not controlled by AirNav.

 

 
 

Would you like to see your business listed on this page?

 If your business provides an interesting product or service to pilots, flight crews, aircraft, or users of the Searchlight Airport, you should consider listing it here.  To start the listing process, click on the button below
 
Add a business
 

Other Pages about Searchlight Airport

www.mccarran.com/ga_searchlight.asp
 
Update a link
 
Copyright © AirNav, LLC. All rights reserved. Privacy Policy  Contact